Time;durP1;ratioP1;P1;durP2;ratioP2;P2;SDS_P1;SDS_P2;PMS_P1;PMS_P2;Temp;Humidity;BMP_temperature;BMP_pressure;BME280_temperature;BME280_humidity;BME280_pressure;Samples;Min_cycle;Max_cycle;Signal;HPM_P1;HPM_P2
2021/03/17 00:00:27;;;;;;;7.18;3.28;;;2.90;98.30;;;;;;4128795;28;20240;-81
2021/03/17 00:02:29;;;;;;;8.98;4.20;;;2.90;98.30;;;;;;4128011;28;20326;-81
2021/03/17 00:04:32;;;;;;;10.63;3.38;;;3.00;98.30;;;;;;4130532;28;21064;-81
2021/03/17 00:06:33;;;;;;;4.53;3.17;;;3.00;98.30;;;;;;4131506;28;20228;-81
2021/03/17 00:08:35;;;;;;;6.72;4.00;;;3.00;98.30;;;;;;4129191;28;20256;-81
2021/03/17 00:10:39;;;;;;;5.82;3.42;;;2.90;98.30;;;;;;4130632;28;20229;-81
2021/03/17 00:12:41;;;;;;;8.38;3.25;;;3.00;98.30;;;;;;4128746;28;20259;-81
2021/03/17 00:14:44;;;;;;;6.85;2.85;;;2.90;98.30;;;;;;4131748;28;20232;-81
2021/03/17 00:16:47;;;;;;;6.25;3.20;;;2.80;98.30;;;;;;4132878;28;20229;-81
2021/03/17 00:18:51;;;;;;;6.05;3.20;;;2.80;98.30;;;;;;4131672;28;20280;-81
2021/03/17 00:20:53;;;;;;;4.15;3.60;;;2.70;98.30;;;;;;4134707;28;20303;-81
2021/03/17 00:22:55;;;;;;;6.72;3.50;;;2.70;98.30;;;;;;4132565;28;20737;-80
2021/03/17 00:24:57;;;;;;;5.40;3.10;;;2.70;98.30;;;;;;4131786;28;20227;-82
2021/03/17 00:26:59;;;;;;;11.52;3.28;;;2.60;98.30;;;;;;4131141;28;20267;-81
2021/03/17 00:29:01;;;;;;;8.68;3.90;;;2.60;98.30;;;;;;4128208;28;20268;-81
2021/03/17 00:31:03;;;;;;;6.25;2.95;;;2.60;98.30;;;;;;4131793;28;20255;-81
2021/03/17 00:33:09;;;;;;;9.15;3.55;;;2.60;98.30;;;;;;4132859;28;20238;-81
2021/03/17 00:35:11;;;;;;;6.53;3.20;;;2.60;98.30;;;;;;4131091;28;20264;-80
2021/03/17 00:37:13;;;;;;;8.30;3.20;;;2.60;98.30;;;;;;4133180;28;20247;-81
2021/03/17 00:39:15;;;;;;;7.00;4.25;;;2.60;98.30;;;;;;4131237;28;20252;-80
2021/03/17 00:41:17;;;;;;;8.38;3.40;;;2.60;98.30;;;;;;4131721;28;20256;-81
2021/03/17 00:43:20;;;;;;;9.15;3.90;;;2.70;98.30;;;;;;4129961;28;20255;-82
2021/03/17 00:45:22;;;;;;;9.90;3.20;;;2.70;98.30;;;;;;4131518;28;20296;-81
2021/03/17 00:47:24;;;;;;;8.65;3.90;;;2.70;98.30;;;;;;4132214;28;20232;-81
2021/03/17 00:49:28;;;;;;;10.25;3.67;;;2.70;98.30;;;;;;4133055;28;20224;-81
2021/03/17 00:51:30;;;;;;;7.05;3.83;;;2.80;98.30;;;;;;4134970;28;20256;-81
2021/03/17 00:53:31;;;;;;;6.05;3.80;;;2.80;98.30;;;;;;4129887;28;20247;-81
2021/03/17 00:55:33;;;;;;;7.07;3.70;;;2.90;98.30;;;;;;4127672;28;20251;-81
2021/03/17 00:57:35;;;;;;;6.50;3.50;;;2.90;98.30;;;;;;4132048;28;20288;-81
2021/03/17 00:59:37;;;;;;;6.18;3.17;;;3.00;98.30;;;;;;4129202;28;20299;-81
2021/03/17 01:01:39;;;;;;;5.97;3.40;;;3.00;98.30;;;;;;4133011;28;20266;-81
2021/03/17 01:03:42;;;;;;;8.82;3.47;;;2.90;98.30;;;;;;4132813;28;20236;-81
2021/03/17 01:05:45;;;;;;;12.02;5.15;;;2.80;98.30;;;;;;4132096;28;20783;-82
2021/03/17 01:07:47;;;;;;;7.90;4.90;;;2.80;98.30;;;;;;4130808;28;20230;-81
2021/03/17 01:09:49;;;;;;;12.73;4.40;;;2.80;98.30;;;;;;4131430;28;20224;-81
2021/03/17 01:11:50;;;;;;;7.07;3.80;;;2.70;98.30;;;;;;4130132;28;20232;-81
2021/03/17 01:13:52;;;;;;;11.05;3.05;;;2.60;98.30;;;;;;4131484;28;20319;-82
2021/03/17 01:15:54;;;;;;;10.07;3.20;;;2.60;98.30;;;;;;4131892;28;20228;-81
2021/03/17 01:17:57;;;;;;;9.57;3.33;;;2.50;98.30;;;;;;4131025;28;20235;-81
2021/03/17 01:20:00;;;;;;;5.43;3.30;;;2.50;98.30;;;;;;4135230;28;20232;-81
2021/03/17 01:22:03;;;;;;;8.10;3.63;;;2.40;98.30;;;;;;4133590;28;20272;-81
2021/03/17 01:24:06;;;;;;;10.35;4.00;;;2.40;98.30;;;;;;4132179;28;20253;-81
2021/03/17 01:26:08;;;;;;;8.13;3.55;;;2.40;98.30;;;;;;4132962;28;20258;-82
2021/03/17 01:28:12;;;;;;;10.10;3.20;;;2.30;98.30;;;;;;4134790;28;20290;-81
2021/03/17 01:30:17;;;;;;;5.43;3.10;;;2.40;98.30;;;;;;4134533;28;20224;-81
2021/03/17 01:32:19;;;;;;;7.00;3.58;;;2.40;98.30;;;;;;4131561;28;20287;-82
2021/03/17 01:34:21;;;;;;;9.10;4.03;;;2.40;98.30;;;;;;4133417;28;20260;-81
2021/03/17 01:36:23;;;;;;;7.72;3.67;;;2.40;98.30;;;;;;4133734;28;20224;-81
2021/03/17 01:38:26;;;;;;;7.22;3.25;;;2.40;98.30;;;;;;4131376;28;21143;-81
2021/03/17 01:40:29;;;;;;;6.47;3.90;;;2.40;98.30;;;;;;4128629;28;20225;-82
2021/03/17 01:42:31;;;;;;;6.30;3.25;;;2.30;98.30;;;;;;4129972;28;20241;-81
2021/03/17 01:44:39;;;;;;;9.23;3.88;;;2.40;98.30;;;;;;4133022;28;20227;-81
2021/03/17 01:46:41;;;;;;;9.02;4.03;;;2.40;98.30;;;;;;4133129;28;21185;-81
2021/03/17 01:48:44;;;;;;;13.43;4.32;;;2.40;98.30;;;;;;4133252;28;20235;-82
2021/03/17 01:50:48;;;;;;;8.43;4.18;;;2.30;98.30;;;;;;4136542;28;20287;-81
2021/03/17 01:52:50;;;;;;;11.00;3.97;;;2.40;98.30;;;;;;4137255;28;20228;-80
2021/03/17 01:54:53;;;;;;;7.43;4.05;;;2.30;98.30;;;;;;4135812;28;20224;-81
2021/03/17 01:56:55;;;;;;;9.25;3.72;;;2.30;98.30;;;;;;4132718;28;20225;-80
2021/03/17 01:58:57;;;;;;;6.07;3.80;;;2.30;98.30;;;;;;4131444;28;20228;-81
2021/03/17 02:01:00;;;;;;;7.72;3.75;;;2.30;98.30;;;;;;4130067;28;20267;-80
2021/03/17 02:03:03;;;;;;;14.82;4.25;;;2.30;98.30;;;;;;4131817;28;20240;-81
2021/03/17 02:05:09;;;;;;;7.63;3.30;;;2.30;98.30;;;;;;4132841;28;20232;-81
2021/03/17 02:07:11;;;;;;;12.32;4.70;;;2.30;98.30;;;;;;4131575;28;20301;-81
2021/03/17 02:09:13;;;;;;;12.23;3.80;;;2.30;98.30;;;;;;4129531;28;20255;-81
2021/03/17 02:11:16;;;;;;;8.85;4.25;;;2.30;98.30;;;;;;4132898;28;20225;-82
2021/03/17 02:13:42;;;;;;;7.55;3.80;;;2.20;98.30;;;;;;4136281;28;20236;-81
2021/03/17 02:15:52;;;;;;;9.60;3.90;;;2.10;98.30;;;;;;4133498;28;20227;-81
2021/03/17 02:18:00;;;;;;;9.48;3.90;;;2.10;98.30;;;;;;4133389;28;20257;-81
2021/03/17 02:20:30;;;;;;;7.45;3.65;;;2.00;98.30;;;;;;4134114;28;20242;-81
2021/03/17 02:22:48;;;;;;;19.88;6.55;;;2.00;98.30;;;;;;4135367;28;20236;-81
2021/03/17 02:24:59;;;;;;;8.15;3.47;;;2.00;98.30;;;;;;4134980;28;20235;-81
2021/03/17 02:27:26;;;;;;;9.02;4.25;;;2.00;98.30;;;;;;4135955;28;20246;-81
2021/03/17 02:29:48;;;;;;;9.52;3.70;;;2.10;98.30;;;;;;4135322;28;20259;-81
2021/03/17 02:32:01;;;;;;;6.78;3.65;;;2.10;98.30;;;;;;4135594;28;20323;-81
2021/03/17 02:34:09;;;;;;;11.70;4.50;;;2.10;98.30;;;;;;4134103;28;20247;-81
2021/03/17 02:36:13;;;;;;;7.07;3.67;;;2.10;98.30;;;;;;4134564;28;20243;-80
2021/03/17 02:38:16;;;;;;;11.00;4.05;;;2.10;98.30;;;;;;4134510;28;20228;-82
2021/03/17 02:40:21;;;;;;;8.32;3.90;;;2.20;98.30;;;;;;4133039;28;20386;-81
2021/03/17 02:42:27;;;;;;;9.45;3.53;;;2.20;98.30;;;;;;4129158;28;20284;-80
2021/03/17 02:44:29;;;;;;;15.82;4.45;;;2.30;98.30;;;;;;4131418;28;20258;-81
2021/03/17 02:46:32;;;;;;;12.40;4.03;;;2.30;98.30;;;;;;4130563;28;20240;-82
2021/03/17 02:48:42;;;;;;;7.50;3.58;;;2.30;98.30;;;;;;4131946;28;20235;-81
2021/03/17 02:50:47;;;;;;;7.07;3.60;;;2.30;98.30;;;;;;4132424;28;20227;-81
2021/03/17 02:52:54;;;;;;;8.70;3.55;;;2.30;98.30;;;;;;4131505;28;20663;-81
2021/03/17 02:54:57;;;;;;;8.45;4.38;;;2.30;98.30;;;;;;4131536;28;20634;-81
2021/03/17 02:57:04;;;;;;;13.75;4.95;;;2.30;98.30;;;;;;4132010;28;20224;-81
2021/03/17 02:59:06;;;;;;;12.18;3.53;;;2.30;98.30;;;;;;4131606;28;20292;-81
2021/03/17 03:01:12;;;;;;;8.55;4.03;;;2.30;98.30;;;;;;4134615;28;20683;-81
2021/03/17 03:03:15;;;;;;;11.38;4.00;;;2.40;98.30;;;;;;4130570;28;20266;-81
2021/03/17 03:05:19;;;;;;;7.13;3.90;;;2.40;98.30;;;;;;4132440;28;20264;-81
2021/03/17 03:07:23;;;;;;;11.07;3.70;;;2.50;98.30;;;;;;4131016;28;20301;-81
2021/03/17 03:09:27;;;;;;;8.73;4.07;;;2.50;98.30;;;;;;4132229;28;20243;-81
2021/03/17 03:11:29;;;;;;;6.38;3.78;;;2.40;98.30;;;;;;4131346;28;20228;-81
2021/03/17 03:13:33;;;;;;;10.13;4.15;;;2.30;98.30;;;;;;4130921;28;20228;-81
2021/03/17 03:15:52;;;;;;;11.07;3.80;;;2.30;98.30;;;;;;4132740;28;20238;-81
2021/03/17 03:17:56;;;;;;;9.45;4.00;;;2.30;98.30;;;;;;4133484;28;20228;-81
2021/03/17 03:19:59;;;;;;;7.05;3.85;;;2.30;98.30;;;;;;4132958;28;20236;-81
2021/03/17 03:22:03;;;;;;;11.05;4.20;;;2.40;98.30;;;;;;4132740;28;20246;-82
2021/03/17 03:24:07;;;;;;;6.63;3.63;;;2.40;98.30;;;;;;4133443;28;20236;-81
2021/03/17 03:26:09;;;;;;;5.82;3.65;;;2.40;98.30;;;;;;4134763;28;20263;-81
2021/03/17 03:28:12;;;;;;;5.63;3.70;;;2.40;98.30;;;;;;4131803;28;20235;-81
2021/03/17 03:30:17;;;;;;;6.13;3.78;;;2.40;98.30;;;;;;4133384;28;20274;-81
2021/03/17 03:32:20;;;;;;;7.97;3.58;;;2.40;98.30;;;;;;4136979;28;20263;-81
2021/03/17 03:34:22;;;;;;;9.35;3.80;;;2.30;98.30;;;;;;4137389;28;20611;-81
2021/03/17 03:36:26;;;;;;;7.55;3.72;;;2.30;98.30;;;;;;4136473;28;20271;-81
2021/03/17 03:38:28;;;;;;;8.85;4.90;;;2.40;98.30;;;;;;4135255;28;20798;-81
2021/03/17 03:40:31;;;;;;;8.10;3.88;;;2.40;98.30;;;;;;4134718;28;20319;-82
2021/03/17 03:42:33;;;;;;;6.95;3.92;;;2.30;98.30;;;;;;4136660;28;20255;-81
2021/03/17 03:44:35;;;;;;;7.60;3.60;;;2.20;98.30;;;;;;4139237;28;20294;-81
2021/03/17 03:46:38;;;;;;;7.97;3.70;;;2.20;98.30;;;;;;4136759;28;20229;-81
2021/03/17 03:48:40;;;;;;;12.02;3.95;;;2.10;98.30;;;;;;4139104;28;20236;-82
2021/03/17 03:50:44;;;;;;;8.13;3.95;;;2.00;98.30;;;;;;4135206;28;20243;-81
2021/03/17 03:52:55;;;;;;;6.25;4.20;;;2.10;98.30;;;;;;4133657;28;21099;-81
2021/03/17 03:55:02;;;;;;;8.55;3.65;;;2.00;98.30;;;;;;4133939;28;20242;-82
2021/03/17 03:57:13;;;;;;;7.25;3.92;;;2.10;98.30;;;;;;4134224;28;20224;-81
2021/03/17 03:59:21;;;;;;;8.30;4.03;;;2.00;98.30;;;;;;4134507;28;20600;-81
2021/03/17 04:01:26;;;;;;;10.57;6.25;;;2.00;98.30;;;;;;4132548;28;20255;-81
2021/03/17 04:03:38;;;;;;;12.60;4.93;;;2.00;98.30;;;;;;4134075;28;20255;-81
2021/03/17 04:05:43;;;;;;;6.57;3.90;;;2.00;98.30;;;;;;4135459;28;20228;-81
2021/03/17 04:07:48;;;;;;;6.78;3.58;;;2.10;98.30;;;;;;4134444;28;20223;-81
2021/03/17 04:09:53;;;;;;;6.32;3.97;;;2.10;98.30;;;;;;4131568;28;20315;-81
2021/03/17 04:11:58;;;;;;;5.28;3.55;;;2.10;98.30;;;;;;4131070;28;20225;-82
2021/03/17 04:14:07;;;;;;;9.55;4.28;;;2.10;98.30;;;;;;4131353;28;20229;-82
2021/03/17 04:16:30;;;;;;;6.82;4.05;;;2.10;98.30;;;;;;4132963;28;20229;-81
2021/03/17 04:18:37;;;;;;;9.85;3.90;;;2.10;98.30;;;;;;4133186;28;20264;-81
2021/03/17 04:20:43;;;;;;;7.88;4.60;;;2.10;98.30;;;;;;4102946;28;20320;-79
2021/03/17 04:22:47;;;;;;;7.90;3.95;;;2.10;98.30;;;;;;4124396;28;20264;-79
2021/03/17 04:24:51;;;;;;;8.30;4.25;;;2.10;98.30;;;;;;4118368;28;20228;-79
2021/03/17 04:26:54;;;;;;;8.80;4.10;;;2.10;98.30;;;;;;4124418;28;20267;-79
2021/03/17 04:28:57;;;;;;;14.55;4.85;;;2.20;98.30;;;;;;4120725;28;20239;-79
2021/03/17 04:31:01;;;;;;;10.50;5.43;;;2.20;98.30;;;;;;4119091;28;20228;-79
2021/03/17 04:33:04;;;;;;;9.63;6.90;;;2.10;98.30;;;;;;4116274;28;20240;-79
2021/03/17 04:35:08;;;;;;;13.82;8.10;;;2.20;98.30;;;;;;4120707;28;20233;-80
2021/03/17 04:37:10;;;;;;;12.60;6.20;;;2.20;98.30;;;;;;4110306;28;20282;-79
2021/03/17 04:39:13;;;;;;;9.43;6.82;;;2.30;98.30;;;;;;4113907;28;20770;-79
2021/03/17 04:41:17;;;;;;;11.52;7.10;;;2.20;98.30;;;;;;4126811;28;20250;-79
2021/03/17 04:43:19;;;;;;;10.20;5.18;;;2.10;98.30;;;;;;4115853;28;20244;-79
2021/03/17 04:45:23;;;;;;;8.70;4.55;;;2.10;98.30;;;;;;4117872;28;20244;-79
2021/03/17 04:47:26;;;;;;;5.95;3.92;;;2.00;98.30;;;;;;4120333;28;20675;-79
2021/03/17 04:49:29;;;;;;;35.67;17.35;;;2.00;98.30;;;;;;4123679;28;20319;-79
2021/03/17 04:51:32;;;;;;;60.13;32.33;;;2.10;98.30;;;;;;4120286;28;20240;-79
2021/03/17 04:53:35;;;;;;;109.97;58.88;;;2.10;98.30;;;;;;4124848;28;20228;-79
2021/03/17 04:55:38;;;;;;;178.80;101.25;;;2.00;98.30;;;;;;4129583;28;20231;-79
2021/03/17 04:57:42;;;;;;;28.95;16.25;;;2.00;98.30;;;;;;4118942;28;20316;-79
2021/03/17 04:59:46;;;;;;;10.30;5.50;;;2.00;98.30;;;;;;4125605;28;20236;-79
2021/03/17 05:01:49;;;;;;;6.80;4.35;;;2.00;98.30;;;;;;4125786;28;20287;-80
2021/03/17 05:03:54;;;;;;;8.68;4.80;;;1.90;98.30;;;;;;4122528;28;20221;-79
2021/03/17 05:05:57;;;;;;;9.93;4.63;;;1.90;98.30;;;;;;4124758;28;20276;-80
2021/03/17 05:08:04;;;;;;;11.32;4.70;;;1.90;98.30;;;;;;4128037;28;20263;-79
2021/03/17 05:10:08;;;;;;;14.13;4.82;;;1.90;98.30;;;;;;4121024;28;20237;-79
2021/03/17 05:12:13;;;;;;;9.45;4.20;;;1.90;98.30;;;;;;4124636;28;20708;-79
2021/03/17 05:14:15;;;;;;;9.02;4.65;;;1.90;98.30;;;;;;4121759;28;20232;-79
2021/03/17 05:16:19;;;;;;;9.10;5.43;;;1.90;98.30;;;;;;4121500;28;20274;-79
2021/03/17 05:18:25;;;;;;;29.20;15.95;;;1.80;98.30;;;;;;4120664;28;20236;-79
2021/03/17 05:20:29;;;;;;;15.18;7.35;;;1.80;98.30;;;;;;4123574;28;21182;-79
2021/03/17 05:22:32;;;;;;;10.07;5.28;;;1.90;98.30;;;;;;4119127;28;20235;-79
2021/03/17 05:24:35;;;;;;;9.85;4.65;;;1.80;98.30;;;;;;4121796;28;20233;-79
2021/03/17 05:26:37;;;;;;;28.65;16.58;;;1.80;98.30;;;;;;4123856;28;20236;-79
2021/03/17 05:28:40;;;;;;;71.50;35.72;;;1.80;98.30;;;;;;4121958;28;20237;-79
2021/03/17 05:30:47;;;;;;;119.40;66.38;;;1.90;98.30;;;;;;4118384;28;20248;-79
2021/03/17 05:32:51;;;;;;;21.55;13.45;;;1.90;98.30;;;;;;4117908;28;20264;-79
2021/03/17 05:34:58;;;;;;;14.95;6.55;;;1.80;98.30;;;;;;4125168;28;20238;-79
2021/03/17 05:37:01;;;;;;;14.60;5.65;;;1.90;98.30;;;;;;4114871;28;20328;-79
2021/03/17 05:39:03;;;;;;;9.70;5.60;;;1.80;98.30;;;;;;4121614;28;20241;-79
2021/03/17 05:41:07;;;;;;;13.05;4.75;;;1.80;98.30;;;;;;4123498;28;20237;-79
2021/03/17 05:43:09;;;;;;;8.48;4.82;;;1.90;98.30;;;;;;4122472;28;20248;-79
2021/03/17 05:45:14;;;;;;;16.30;4.85;;;1.90;98.30;;;;;;4127847;28;20659;-79
2021/03/17 05:47:23;;;;;;;7.07;4.63;;;1.90;98.30;;;;;;4123961;28;20234;-79
2021/03/17 05:49:25;;;;;;;7.97;5.22;;;1.90;98.30;;;;;;4123196;28;20232;-79
2021/03/17 05:51:28;;;;;;;9.63;4.72;;;1.80;98.30;;;;;;4121595;28;20354;-79
2021/03/17 05:53:32;;;;;;;7.53;4.43;;;1.80;98.30;;;;;;4114244;28;20229;-79
2021/03/17 05:55:34;;;;;;;7.95;4.70;;;1.90;98.30;;;;;;4125960;28;20267;-79
2021/03/17 05:57:37;;;;;;;7.85;5.22;;;1.80;98.30;;;;;;4120056;28;20735;-78
2021/03/17 05:59:40;;;;;;;12.32;5.45;;;1.80;98.30;;;;;;4123147;28;20232;-79
2021/03/17 06:01:43;;;;;;;8.15;4.88;;;1.80;98.30;;;;;;4125002;28;20233;-79
2021/03/17 06:03:47;;;;;;;7.82;4.55;;;1.80;98.30;;;;;;4122356;28;20298;-79
2021/03/17 06:05:54;;;;;;;9.30;4.88;;;1.90;98.30;;;;;;4115186;28;20251;-79
2021/03/17 06:08:03;;;;;;;8.23;4.30;;;1.90;98.30;;;;;;4118807;28;20233;-79
2021/03/17 06:10:08;;;;;;;8.13;4.82;;;1.90;98.30;;;;;;4121747;28;20311;-79
2021/03/17 06:12:14;;;;;;;7.97;4.85;;;1.80;98.30;;;;;;4114896;28;20242;-79
2021/03/17 06:14:19;;;;;;;13.20;5.05;;;1.80;98.30;;;;;;4114839;28;20271;-79
2021/03/17 06:16:24;;;;;;;10.85;5.35;;;1.90;98.30;;;;;;4115372;28;20248;-78
2021/03/17 06:18:29;;;;;;;8.32;5.47;;;1.90;98.30;;;;;;4118849;28;20237;-79
2021/03/17 06:20:32;;;;;;;11.63;5.53;;;1.90;98.30;;;;;;4116288;28;20245;-79
2021/03/17 06:22:35;;;;;;;10.52;5.70;;;1.90;98.30;;;;;;4118233;28;20224;-79
2021/03/17 06:24:39;;;;;;;9.90;5.82;;;1.90;98.30;;;;;;4125276;28;20244;-79
2021/03/17 06:26:43;;;;;;;13.75;5.20;;;2.00;98.30;;;;;;4125590;28;20240;-79
2021/03/17 06:28:47;;;;;;;7.05;4.63;;;2.00;98.30;;;;;;4118708;28;20246;-80
2021/03/17 06:30:53;;;;;;;9.07;5.47;;;1.90;98.30;;;;;;4120979;28;20266;-80
2021/03/17 06:32:56;;;;;;;7.57;4.95;;;1.80;98.30;;;;;;4118936;28;20212;-79
2021/03/17 06:34:58;;;;;;;7.07;4.97;;;1.80;98.30;;;;;;4119362;28;20323;-78
2021/03/17 06:37:00;;;;;;;13.30;5.28;;;1.90;98.30;;;;;;4119789;28;20252;-79
2021/03/17 06:39:08;;;;;;;11.77;5.30;;;2.00;98.30;;;;;;4119784;28;20626;-79
2021/03/17 06:41:10;;;;;;;8.32;4.95;;;2.00;98.30;;;;;;4116506;28;20895;-79
2021/03/17 06:43:14;;;;;;;9.27;4.90;;;2.00;98.30;;;;;;4116601;28;20232;-79
2021/03/17 06:45:29;;;;;;;6.95;4.93;;;2.10;98.30;;;;;;4119882;28;20244;-79
2021/03/17 06:47:31;;;;;;;16.90;5.35;;;2.10;98.30;;;;;;4132047;28;20271;-82
2021/03/17 06:49:36;;;;;;;9.27;4.93;;;2.20;98.30;;;;;;4131526;28;20228;-79
2021/03/17 06:51:38;;;;;;;8.45;5.90;;;2.20;98.30;;;;;;4124000;28;20228;-79
2021/03/17 06:53:45;;;;;;;9.60;5.28;;;2.30;98.30;;;;;;4126871;28;20225;-80
2021/03/17 06:55:47;;;;;;;9.68;4.72;;;2.30;98.30;;;;;;4128171;28;20343;-80
2021/03/17 06:57:51;;;;;;;10.30;5.85;;;2.30;98.30;;;;;;4124897;28;20225;-81
2021/03/17 06:59:53;;;;;;;6.57;4.38;;;2.30;98.30;;;;;;4123297;28;20297;-80
2021/03/17 07:01:55;;;;;;;6.18;4.57;;;2.40;98.30;;;;;;4125865;28;20240;-78
2021/03/17 07:03:59;;;;;;;153.43;72.32;;;2.40;98.30;;;;;;4121440;28;20581;-79
2021/03/17 07:06:10;;;;;;;196.48;107.35;;;2.50;98.30;;;;;;4122722;28;20224;-79
2021/03/17 07:08:14;;;;;;;61.78;32.17;;;2.60;98.30;;;;;;4127990;28;20243;-79
2021/03/17 07:10:34;;;;;;;24.17;12.88;;;2.70;98.30;;;;;;4124795;28;20255;-79
2021/03/17 07:12:36;;;;;;;16.90;6.82;;;2.80;98.30;;;;;;4123191;28;20691;-79
2021/03/17 07:14:39;;;;;;;12.15;6.35;;;2.80;98.30;;;;;;4129091;28;20318;-79
2021/03/17 07:16:46;;;;;;;10.85;5.95;;;2.90;98.30;;;;;;4121101;28;20312;-79
2021/03/17 07:18:57;;;;;;;6.60;4.60;;;3.00;98.30;;;;;;4118351;28;20251;-79
2021/03/17 07:21:00;;;;;;;8.00;4.75;;;3.00;98.30;;;;;;4122273;28;20240;-79
2021/03/17 07:23:39;;;;;;;9.80;5.15;;;3.10;98.30;;;;;;4121105;28;20692;-79
2021/03/17 07:26:01;;;;;;;7.38;5.15;;;3.10;98.30;;;;;;4096749;28;20642;-79
2021/03/17 07:28:03;;;;;;;13.13;4.80;;;3.20;98.30;;;;;;4095965;28;20658;-79
2021/03/17 07:30:10;;;;;;;6.15;4.07;;;3.10;98.30;;;;;;4103317;28;20239;-79
2021/03/17 07:32:20;;;;;;;5.57;4.68;;;3.10;98.30;;;;;;4123414;28;20247;-79
2021/03/17 07:34:25;;;;;;;7.63;4.20;;;3.20;98.30;;;;;;4122753;28;20223;-79
2021/03/17 07:36:36;;;;;;;7.90;5.28;;;3.20;98.30;;;;;;4129272;28;20237;-79
2021/03/17 07:38:38;;;;;;;8.95;5.07;;;3.30;98.30;;;;;;4120607;28;20322;-80
2021/03/17 07:40:42;;;;;;;8.88;5.90;;;3.30;98.30;;;;;;4125208;28;20322;-80
2021/03/17 07:42:44;;;;;;;10.23;4.67;;;3.30;98.30;;;;;;4127438;28;20320;-79
2021/03/17 07:44:47;;;;;;;12.07;5.18;;;3.40;98.30;;;;;;4125384;28;20508;-79
2021/03/17 07:46:51;;;;;;;8.27;5.20;;;3.50;98.30;;;;;;4124515;28;20747;-79
2021/03/17 07:49:13;;;;;;;12.95;6.68;;;3.40;98.30;;;;;;4124157;28;20253;-79
2021/03/17 07:51:15;;;;;;;9.20;5.72;;;3.20;98.30;;;;;;4124760;28;20239;-79
2021/03/17 07:53:21;;;;;;;8.80;5.10;;;3.20;98.30;;;;;;4125934;28;20328;-79
2021/03/17 07:55:25;;;;;;;10.40;5.28;;;3.20;98.30;;;;;;4125128;28;20239;-79
2021/03/17 07:57:29;;;;;;;35.45;19.42;;;3.30;98.30;;;;;;4111083;28;20264;-79
2021/03/17 07:59:31;;;;;;;47.65;24.70;;;3.40;98.30;;;;;;4127431;28;20236;-79
2021/03/17 08:01:33;;;;;;;284.85;151.20;;;3.40;98.30;;;;;;4124089;28;20703;-79
2021/03/17 08:03:36;;;;;;;77.68;41.55;;;3.60;98.30;;;;;;4125599;28;20290;-79
2021/03/17 08:05:40;;;;;;;30.92;15.57;;;3.60;98.30;;;;;;4125016;28;20232;-79
2021/03/17 08:07:43;;;;;;;13.73;9.23;;;3.60;98.30;;;;;;4127222;28;20316;-79
2021/03/17 08:09:45;;;;;;;12.85;7.85;;;3.80;98.30;;;;;;4119494;28;20228;-79
2021/03/17 08:11:49;;;;;;;11.20;5.70;;;3.90;98.30;;;;;;4125415;28;20291;-79
2021/03/17 08:13:52;;;;;;;8.00;5.37;;;3.90;98.30;;;;;;4122343;28;20563;-79
2021/03/17 08:15:55;;;;;;;9.40;5.57;;;4.00;98.30;;;;;;4124797;28;20857;-79
2021/03/17 08:17:57;;;;;;;41.00;22.37;;;4.00;98.30;;;;;;4122304;28;20495;-79
2021/03/17 08:20:20;;;;;;;120.77;54.37;;;4.10;98.30;;;;;;4125462;28;20576;-79
2021/03/17 08:22:36;;;;;;;116.17;54.20;;;4.10;98.30;;;;;;4121350;28;20488;-79
2021/03/17 08:24:44;;;;;;;53.03;22.90;;;4.10;98.30;;;;;;4117223;28;20492;-78
2021/03/17 08:26:46;;;;;;;20.50;10.50;;;4.20;98.30;;;;;;4119236;28;20495;-78
2021/03/17 08:28:51;;;;;;;12.43;7.23;;;4.30;98.30;;;;;;4117793;28;20494;-78
2021/03/17 08:30:54;;;;;;;10.10;5.80;;;4.40;98.30;;;;;;4120142;28;20504;-78
2021/03/17 08:32:59;;;;;;;10.03;6.00;;;4.50;98.30;;;;;;4119461;28;20871;-79
2021/03/17 08:35:01;;;;;;;17.47;5.97;;;4.50;98.30;;;;;;4123492;28;20495;-78
2021/03/17 08:37:05;;;;;;;9.90;6.27;;;4.50;98.30;;;;;;4124655;28;20914;-77
2021/03/17 08:39:08;;;;;;;13.00;5.80;;;4.50;98.30;;;;;;4113864;28;20498;-79
2021/03/17 08:41:10;;;;;;;12.30;6.47;;;4.50;98.30;;;;;;4122641;28;21016;-79
2021/03/17 08:43:42;;;;;;;9.60;6.00;;;4.50;98.30;;;;;;4117259;28;20494;-79
2021/03/17 08:45:44;;;;;;;13.10;5.90;;;4.50;98.30;;;;;;4120787;28;21001;-79
2021/03/17 08:47:48;;;;;;;9.53;6.00;;;4.50;98.30;;;;;;4123087;28;20534;-79
2021/03/17 08:50:16;;;;;;;13.37;6.60;;;4.50;98.30;;;;;;4122354;28;20505;-79
2021/03/17 08:52:19;;;;;;;15.67;6.67;;;4.60;98.30;;;;;;4128361;28;20499;-79
2021/03/17 08:54:45;;;;;;;10.70;6.13;;;4.70;98.30;;;;;;4127708;28;20495;-79
2021/03/17 08:56:48;;;;;;;9.40;6.07;;;4.60;98.30;;;;;;4127796;28;20544;-79
2021/03/17 08:59:15;;;;;;;10.47;6.47;;;4.60;98.30;;;;;;4127089;28;20549;-80
2021/03/17 09:01:32;;;;;;;16.30;7.10;;;4.60;98.30;;;;;;4125952;28;20516;-82
2021/03/17 09:03:51;;;;;;;11.20;6.60;;;4.70;98.30;;;;;;4121865;28;20494;-80
2021/03/17 09:06:06;;;;;;;11.77;7.20;;;4.70;98.30;;;;;;4118104;28;20490;-79
2021/03/17 09:08:10;;;;;;;13.87;6.93;;;4.90;98.30;;;;;;4126400;28;20505;-79
2021/03/17 09:10:14;;;;;;;13.53;6.87;;;5.00;98.30;;;;;;4125446;28;20522;-81
2021/03/17 09:12:18;;;;;;;12.60;8.13;;;5.10;98.30;;;;;;4129336;28;21461;-83
2021/03/17 09:14:29;;;;;;;11.80;7.17;;;5.30;98.30;;;;;;4125247;28;20502;-81
2021/03/17 09:16:38;;;;;;;13.23;6.80;;;5.60;98.30;;;;;;4128467;28;20558;-81
2021/03/17 09:18:40;;;;;;;10.77;6.60;;;6.10;98.30;;;;;;4129925;28;20461;-81
2021/03/17 09:20:44;;;;;;;9.20;7.27;;;6.60;98.30;;;;;;4130545;28;20480;-81
2021/03/17 09:23:00;;;;;;;10.03;7.60;;;6.90;98.30;;;;;;4127237;28;20990;-81
2021/03/17 09:25:13;;;;;;;10.00;8.00;;;7.00;98.30;;;;;;4121647;28;20514;-81
2021/03/17 09:27:15;;;;;;;9.87;7.30;;;7.10;98.30;;;;;;4117911;28;20542;-81
2021/03/17 09:29:26;;;;;;;11.10;7.03;;;6.90;98.30;;;;;;4121251;28;20492;-80
2021/03/17 09:31:29;;;;;;;16.07;8.13;;;7.00;98.30;;;;;;4123710;28;20910;-80
2021/03/17 09:33:34;;;;;;;10.40;7.47;;;7.10;98.30;;;;;;4122008;28;20467;-80
2021/03/17 09:35:38;;;;;;;13.20;8.20;;;7.10;98.30;;;;;;4130123;28;20798;-80
2021/03/17 09:37:41;;;;;;;17.30;7.57;;;7.00;98.30;;;;;;4121146;28;20466;-80
2021/03/17 09:39:48;;;;;;;15.93;8.27;;;7.10;98.30;;;;;;4122605;28;20597;-80
2021/03/17 09:41:51;;;;;;;15.80;8.83;;;7.10;98.30;;;;;;4125024;28;20516;-82
2021/03/17 09:43:55;;;;;;;10.07;7.43;;;7.10;98.30;;;;;;4119169;28;20566;-80
2021/03/17 09:45:57;;;;;;;11.20;7.70;;;7.00;98.30;;;;;;4125429;28;20552;-80
2021/03/17 09:48:00;;;;;;;11.23;8.03;;;7.00;98.30;;;;;;4124392;28;20484;-80
2021/03/17 09:50:13;;;;;;;9.73;7.50;;;7.20;98.30;;;;;;4118122;28;20495;-80
2021/03/17 09:52:15;;;;;;;18.33;7.47;;;7.40;98.30;;;;;;4121902;28;20451;-80
2021/03/17 09:54:19;;;;;;;9.07;7.23;;;7.50;98.30;;;;;;4110920;28;20483;-80
2021/03/17 09:56:42;;;;;;;14.33;8.00;;;7.80;98.30;;;;;;4118544;28;20462;-80
2021/03/17 09:58:45;;;;;;;48.40;23.63;;;8.10;98.30;;;;;;4112089;28;20465;-80
2021/03/17 10:00:48;;;;;;;217.47;114.43;;;8.50;98.30;;;;;;4119006;28;20495;-79
2021/03/17 10:02:50;;;;;;;57.27;31.93;;;8.50;98.30;;;;;;4116001;28;20588;-80
2021/03/17 10:04:54;;;;;;;17.70;11.47;;;8.70;98.30;;;;;;4120603;28;20483;-80
2021/03/17 10:06:57;;;;;;;15.73;8.80;;;8.80;98.30;;;;;;4116865;28;20482;-80
2021/03/17 10:08:59;;;;;;;13.63;9.17;;;8.80;98.30;;;;;;4115131;28;20495;-80
2021/03/17 10:11:02;;;;;;;12.13;8.23;;;8.80;98.30;;;;;;4123316;28;20491;-80
2021/03/17 10:13:04;;;;;;;16.03;9.33;;;8.80;98.30;;;;;;4116793;28;20496;-80
2021/03/17 10:15:10;;;;;;;10.37;7.73;;;8.70;98.30;;;;;;4118966;28;20578;-80
2021/03/17 10:17:14;;;;;;;12.50;7.33;;;8.70;98.30;;;;;;4118729;28;21046;-80
2021/03/17 10:19:18;;;;;;;15.07;8.23;;;8.70;98.30;;;;;;4118727;28;20587;-80
2021/03/17 10:21:26;;;;;;;12.97;7.67;;;8.70;98.30;;;;;;4119774;28;20492;-80
2021/03/17 10:23:28;;;;;;;13.30;7.40;;;8.70;98.30;;;;;;4117495;28;20487;-80
2021/03/17 10:25:30;;;;;;;11.90;8.33;;;8.80;98.30;;;;;;4105225;28;20559;-80
2021/03/17 10:27:35;;;;;;;12.00;7.50;;;9.40;98.30;;;;;;4120672;28;20472;-80
2021/03/17 10:29:38;;;;;;;10.03;7.50;;;9.80;98.30;;;;;;4116914;28;20906;-79
2021/03/17 10:31:41;;;;;;;12.13;8.60;;;10.20;98.30;;;;;;4121887;28;20523;-79
2021/03/17 10:33:46;;;;;;;10.27;7.23;;;10.50;98.30;;;;;;4117743;28;20538;-79
2021/03/17 10:35:49;;;;;;;14.03;9.40;;;10.70;98.30;;;;;;4118397;28;20570;-79
2021/03/17 10:37:51;;;;;;;11.73;8.23;;;11.10;98.30;;;;;;4118514;28;20860;-79
2021/03/17 10:39:54;;;;;;;12.10;7.80;;;11.30;98.00;;;;;;4120864;28;20581;-79
2021/03/17 10:41:58;;;;;;;15.70;8.30;;;11.40;98.10;;;;;;4119163;28;20527;-79
2021/03/17 10:44:15;;;;;;;10.43;8.00;;;11.60;97.90;;;;;;4125063;28;20522;-79
2021/03/17 10:46:17;;;;;;;11.20;8.83;;;11.60;96.40;;;;;;4119401;28;20566;-79
2021/03/17 10:48:22;;;;;;;10.70;7.57;;;11.70;97.50;;;;;;4122523;28;20539;-79
2021/03/17 10:50:32;;;;;;;10.23;7.37;;;12.20;96.30;;;;;;4120915;28;20495;-80
2021/03/17 10:52:37;;;;;;;10.83;7.60;;;12.70;94.70;;;;;;4122323;28;20546;-80
2021/03/17 10:54:41;;;;;;;11.30;6.40;;;13.00;93.40;;;;;;4122439;28;21016;-79